sensor_id;sensor_type;location;lat;lon;timestamp;pressure;altitude;pressure_sealevel;temperature;humidity
10006;BME280;5042;42.626;23.382;2024-01-06T00:02:24;150944.56;;;7.35;100.00
10006;BME280;5042;42.626;23.382;2024-01-06T00:04:53;150956.22;;;7.39;100.00
10006;BME280;5042;42.626;23.382;2024-01-06T00:07:20;150953.66;;;7.38;100.00
10006;BME280;5042;42.626;23.382;2024-01-06T00:09:47;150947.19;;;7.36;100.00
10006;BME280;5042;42.626;23.382;2024-01-06T00:12:14;150980.78;;;7.49;100.00
10006;BME280;5042;42.626;23.382;2024-01-06T00:14:41;150989.88;;;7.53;100.00
10006;BME280;5042;42.626;23.382;2024-01-06T00:17:10;151019.63;;;7.64;100.00
10006;BME280;5042;42.626;23.382;2024-01-06T00:19:37;151009.28;;;7.60;100.00
10006;BME280;5042;42.626;23.382;2024-01-06T00:22:05;151005.38;;;7.59;100.00
10006;BME280;5042;42.626;23.382;2024-01-06T00:24:32;150975.63;;;7.47;100.00
10006;BME280;5042;42.626;23.382;2024-01-06T00:26:59;150952.31;;;7.38;100.00
10006;BME280;5042;42.626;23.382;2024-01-06T00:29:26;150940.72;;;7.33;100.00
10006;BME280;5042;42.626;23.382;2024-01-06T00:31:53;150956.22;;;7.39;100.00
10006;BME280;5042;42.626;23.382;2024-01-06T00:34:20;150940.72;;;7.33;100.00
10006;BME280;5042;42.626;23.382;2024-01-06T00:36:47;150908.34;;;7.20;100.00
10006;BME280;5042;42.626;23.382;2024-01-06T00:39:15;150908.34;;;7.20;100.00
10006;BME280;5042;42.626;23.382;2024-01-06T00:41:42;150922.63;;;7.26;100.00
10006;BME280;5042;42.626;23.382;2024-01-06T00:44:09;150887.69;;;7.12;100.00
10006;BME280;5042;42.626;23.382;2024-01-06T00:46:36;150903.19;;;7.18;100.00
10006;BME280;5042;42.626;23.382;2024-01-06T00:49:03;150913.53;;;7.22;100.00
10006;BME280;5042;42.626;23.382;2024-01-06T00:51:30;150907.06;;;7.20;100.00
10006;BME280;5042;42.626;23.382;2024-01-06T00:53:57;150877.31;;;7.08;100.00
10006;BME280;5042;42.626;23.382;2024-01-06T00:56:25;150882.50;;;7.10;100.00
10006;BME280;5042;42.626;23.382;2024-01-06T00:58:52;150829.47;;;6.89;100.00
10006;BME280;5042;42.626;23.382;2024-01-06T01:01:19;150776.44;;;6.68;100.00
10006;BME280;5042;42.626;23.382;2024-01-06T01:03:46;150737.69;;;6.53;100.00
10006;BME280;5042;42.626;23.382;2024-01-06T01:06:13;150755.78;;;6.60;100.00
10006;BME280;5042;42.626;23.382;2024-01-06T01:08:40;150751.88;;;6.58;100.00
10006;BME280;5042;42.626;23.382;2024-01-06T01:11:07;150747.97;;;6.57;100.00
10006;BME280;5042;42.626;23.382;2024-01-06T01:13:35;150790.69;;;6.74;100.00
10006;BME280;5042;42.626;23.382;2024-01-06T01:16:02;150817.81;;;6.85;100.00
10006;BME280;5042;42.626;23.382;2024-01-06T01:18:29;150823.00;;;6.87;100.00
10006;BME280;5042;42.626;23.382;2024-01-06T01:20:56;150812.66;;;6.83;100.00
10006;BME280;5042;42.626;23.382;2024-01-06T01:23:23;150766.09;;;6.64;100.00
10006;BME280;5042;42.626;23.382;2024-01-06T01:25:50;150804.91;;;6.79;100.00
10006;BME280;5042;42.626;23.382;2024-01-06T01:28:16;150823.00;;;6.87;100.00
10006;BME280;5042;42.626;23.382;2024-01-06T01:30:44;150835.94;;;6.92;100.00
10006;BME280;5042;42.626;23.382;2024-01-06T01:33:11;150823.00;;;6.87;100.00
10006;BME280;5042;42.626;23.382;2024-01-06T01:35:38;150786.81;;;6.72;100.00
10006;BME280;5042;42.626;23.382;2024-01-06T01:38:06;150779.06;;;6.69;100.00
10006;BME280;5042;42.626;23.382;2024-01-06T01:40:33;150777.72;;;6.69;100.00
10006;BME280;5042;42.626;23.382;2024-01-06T01:43:00;150777.72;;;6.69;100.00
10006;BME280;5042;42.626;23.382;2024-01-06T01:45:27;150812.66;;;6.83;100.00
10006;BME280;5042;42.626;23.382;2024-01-06T01:47:55;150794.53;;;6.75;100.00
10006;BME280;5042;42.626;23.382;2024-01-06T01:50:22;150768.69;;;6.65;100.00
10006;BME280;5042;42.626;23.382;2024-01-06T01:52:53;150777.72;;;6.69;100.00
10006;BME280;5042;42.626;23.382;2024-01-06T01:55:20;150759.63;;;6.62;100.00
10006;BME280;5042;42.626;23.382;2024-01-06T01:57:47;150772.53;;;6.67;100.00
10006;BME280;5042;42.626;23.382;2024-01-06T02:00:14;150751.88;;;6.58;100.00
10006;BME280;5042;42.626;23.382;2024-01-06T02:02:41;150753.16;;;6.59;100.00
10006;BME280;5042;42.626;23.382;2024-01-06T02:05:10;150629.09;;;6.10;100.00
10006;BME280;5042;42.626;23.382;2024-01-06T02:07:37;150702.75;;;6.39;100.00
10006;BME280;5042;42.626;23.382;2024-01-06T02:10:05;150692.41;;;6.35;100.00
10006;BME280;5042;42.626;23.382;2024-01-06T02:12:32;150661.41;;;6.23;100.00
10006;BME280;5042;42.626;23.382;2024-01-06T02:14:59;150534.72;;;5.72;100.00
10006;BME280;5042;42.626;23.382;2024-01-06T02:17:26;150662.69;;;6.23;100.00
10006;BME280;5042;42.626;23.382;2024-01-06T02:19:53;150671.75;;;6.27;100.00
10006;BME280;5042;42.626;23.382;2024-01-06T02:22:21;150658.84;;;6.22;100.00
10006;BME280;5042;42.626;23.382;2024-01-06T02:24:48;150629.09;;;6.10;100.00
10006;BME280;5042;42.626;23.382;2024-01-06T02:27:15;150634.22;;;6.12;100.00
10006;BME280;5042;42.626;23.382;2024-01-06T02:29:42;150676.91;;;6.29;100.00
10006;BME280;5042;42.626;23.382;2024-01-06T02:32:09;150679.50;;;6.30;100.00
10006;BME280;5042;42.626;23.382;2024-01-06T02:34:35;150685.94;;;6.32;100.00
10006;BME280;5042;42.626;23.382;2024-01-06T02:37:03;150675.59;;;6.28;100.00
10006;BME280;5042;42.626;23.382;2024-01-06T02:39:32;150675.59;;;6.28;100.00
10006;BME280;5042;42.626;23.382;2024-01-06T02:41:59;150682.06;;;6.31;100.00
10006;BME280;5042;42.626;23.382;2024-01-06T02:44:26;150673.03;;;6.27;100.00
10006;BME280;5042;42.626;23.382;2024-01-06T02:46:52;150660.13;;;6.22;100.00
10006;BME280;5042;42.626;23.382;2024-01-06T02:49:20;150613.56;;;6.04;100.00
10006;BME280;5042;42.626;23.382;2024-01-06T02:51:46;150621.31;;;6.07;100.00
10006;BME280;5042;42.626;23.382;2024-01-06T02:54:13;150631.66;;;6.11;100.00
10006;BME280;5042;42.626;23.382;2024-01-06T02:56:42;150599.38;;;5.98;100.00
10006;BME280;5042;42.626;23.382;2024-01-06T02:59:08;150616.13;;;6.05;100.00
10006;BME280;5042;42.626;23.382;2024-01-06T03:01:35;150601.94;;;5.99;100.00
10006;BME280;5042;42.626;23.382;2024-01-06T03:04:02;150577.34;;;5.89;100.00
10006;BME280;5042;42.626;23.382;2024-01-06T03:06:29;150537.28;;;5.73;100.00
10006;BME280;5042;42.626;23.382;2024-01-06T03:08:56;150542.44;;;5.76;100.00
10006;BME280;5042;42.626;23.382;2024-01-06T03:11:23;150573.44;;;5.88;100.00
10006;BME280;5042;42.626;23.382;2024-01-06T03:13:51;150579.91;;;5.90;100.00
10006;BME280;5042;42.626;23.382;2024-01-06T03:16:18;150596.75;;;5.97;100.00
10006;BME280;5042;42.626;23.382;2024-01-06T03:18:45;150618.75;;;6.06;100.00
10006;BME280;5042;42.626;23.382;2024-01-06T03:21:19;150609.69;;;6.02;100.00
10006;BME280;5042;42.626;23.382;2024-01-06T03:23:47;150665.28;;;6.24;100.00
10006;BME280;5042;42.626;23.382;2024-01-06T03:26:14;150645.88;;;6.16;100.00
10006;BME280;5042;42.626;23.382;2024-01-06T03:28:41;150656.22;;;6.21;100.00
10006;BME280;5042;42.626;23.382;2024-01-06T03:31:09;150661.41;;;6.23;100.00
10006;BME280;5042;42.626;23.382;2024-01-06T03:33:37;150673.03;;;6.27;100.00
10006;BME280;5042;42.626;23.382;2024-01-06T03:36:05;150666.56;;;6.25;100.00
10006;BME280;5042;42.626;23.382;2024-01-06T03:38:32;150663.97;;;6.24;100.00
10006;BME280;5042;42.626;23.382;2024-01-06T03:40:59;150656.22;;;6.21;100.00
10006;BME280;5042;42.626;23.382;2024-01-06T03:43:26;150657.50;;;6.21;100.00
10006;BME280;5042;42.626;23.382;2024-01-06T03:45:53;150649.75;;;6.18;100.00
10006;BME280;5042;42.626;23.382;2024-01-06T03:48:22;150612.28;;;6.03;100.00
10006;BME280;5042;42.626;23.382;2024-01-06T03:50:49;150590.31;;;5.94;100.00
10006;BME280;5042;42.626;23.382;2024-01-06T03:53:16;150592.88;;;5.95;100.00
10006;BME280;5042;42.626;23.382;2024-01-06T03:55:43;150555.34;;;5.81;100.00
10006;BME280;5042;42.626;23.382;2024-01-06T03:58:10;150585.09;;;5.92;100.00
10006;BME280;5042;42.626;23.382;2024-01-06T04:00:36;150576.06;;;5.89;100.00
10006;BME280;5042;42.626;23.382;2024-01-06T04:03:04;150554.06;;;5.80;100.00
10006;BME280;5042;42.626;23.382;2024-01-06T04:05:33;150567.00;;;5.85;100.00
10006;BME280;5042;42.626;23.382;2024-01-06T04:08:00;150552.78;;;5.80;100.00
10006;BME280;5042;42.626;23.382;2024-01-06T04:10:27;150556.63;;;5.81;100.00
10006;BME280;5042;42.626;23.382;2024-01-06T04:12:54;150528.25;;;5.70;100.00
10006;BME280;5042;42.626;23.382;2024-01-06T04:15:21;150547.63;;;5.78;100.00
10006;BME280;5042;42.626;23.382;2024-01-06T04:17:49;150556.63;;;5.81;100.00
10006;BME280;5042;42.626;23.382;2024-01-06T04:20:18;150517.91;;;5.66;100.00
10006;BME280;5042;42.626;23.382;2024-01-06T04:22:46;150369.34;;;5.07;100.00
10006;BME280;5042;42.626;23.382;2024-01-06T04:25:13;150559.25;;;5.82;100.00
10006;BME280;5042;42.626;23.382;2024-01-06T04:27:40;150581.25;;;5.91;100.00
10006;BME280;5042;42.626;23.382;2024-01-06T04:30:07;150592.88;;;5.95;100.00
10006;BME280;5042;42.626;23.382;2024-01-06T04:32:33;150579.91;;;5.90;100.00
10006;BME280;5042;42.626;23.382;2024-01-06T04:35:00;150567.00;;;5.85;100.00
10006;BME280;5042;42.626;23.382;2024-01-06T04:37:28;150554.06;;;5.80;100.00
10006;BME280;5042;42.626;23.382;2024-01-06T04:39:57;150543.72;;;5.76;100.00
10006;BME280;5042;42.626;23.382;2024-01-06T04:42:24;150538.56;;;5.74;100.00
10006;BME280;5042;42.626;23.382;2024-01-06T04:44:51;150501.09;;;5.59;100.00
10006;BME280;5042;42.626;23.382;2024-01-06T04:47:18;150512.72;;;5.64;100.00
10006;BME280;5042;42.626;23.382;2024-01-06T04:49:45;150499.81;;;5.59;100.00
10006;BME280;5042;42.626;23.382;2024-01-06T04:52:12;150505.00;;;5.61;100.00
10006;BME280;5042;42.626;23.382;2024-01-06T04:54:39;150494.66;;;5.57;100.00
10006;BME280;5042;42.626;23.382;2024-01-06T04:57:07;150484.28;;;5.52;100.00
10006;BME280;5042;42.626;23.382;2024-01-06T04:59:34;150493.38;;;5.56;100.00
10006;BME280;5042;42.626;23.382;2024-01-06T05:02:02;150498.53;;;5.58;100.00
10006;BME280;5042;42.626;23.382;2024-01-06T05:04:29;150462.38;;;5.44;100.00
10006;BME280;5042;42.626;23.382;2024-01-06T05:06:58;150445.56;;;5.37;100.00
10006;BME280;5042;42.626;23.382;2024-01-06T05:09:25;150334.47;;;4.93;100.00
10006;BME280;5042;42.626;23.382;2024-01-06T05:11:52;150441.69;;;5.36;100.00
10006;BME280;5042;42.626;23.382;2024-01-06T05:14:20;150455.91;;;5.41;100.00
10006;BME280;5042;42.626;23.382;2024-01-06T05:16:47;150458.47;;;5.42;100.00
10006;BME280;5042;42.626;23.382;2024-01-06T05:19:14;150461.03;;;5.43;100.00
10006;BME280;5042;42.626;23.382;2024-01-06T05:21:45;150436.50;;;5.34;100.00
10006;BME280;5042;42.626;23.382;2024-01-06T05:24:12;150437.84;;;5.34;100.00
10006;BME280;5042;42.626;23.382;2024-01-06T05:26:39;150444.28;;;5.37;100.00
10006;BME280;5042;42.626;23.382;2024-01-06T05:29:07;150448.13;;;5.38;100.00
10006;BME280;5042;42.626;23.382;2024-01-06T05:31:35;150439.13;;;5.35;100.00
10006;BME280;5042;42.626;23.382;2024-01-06T05:34:02;150455.91;;;5.41;100.00
10006;BME280;5042;42.626;23.382;2024-01-06T05:36:30;150422.31;;;5.28;100.00
10006;BME280;5042;42.626;23.382;2024-01-06T05:38:57;150453.31;;;5.40;100.00
10006;BME280;5042;42.626;23.382;2024-01-06T05:41:24;150435.22;;;5.33;100.00
10006;BME280;5042;42.626;23.382;2024-01-06T05:43:51;150432.66;;;5.32;100.00
10006;BME280;5042;42.626;23.382;2024-01-06T05:46:21;150439.13;;;5.35;100.00
10006;BME280;5042;42.626;23.382;2024-01-06T05:48:50;150307.38;;;4.82;100.00
10006;BME280;5042;42.626;23.382;2024-01-06T05:51:17;150414.56;;;5.25;100.00
10006;BME280;5042;42.626;23.382;2024-01-06T05:53:44;150428.78;;;5.30;100.00
10006;BME280;5042;42.626;23.382;2024-01-06T05:56:11;150424.88;;;5.29;100.00
10006;BME280;5042;42.626;23.382;2024-01-06T05:58:38;150404.22;;;5.21;100.00
10006;BME280;5042;42.626;23.382;2024-01-06T06:01:04;150383.59;;;5.13;100.00
10006;BME280;5042;42.626;23.382;2024-01-06T06:03:32;150360.34;;;5.03;100.00
10006;BME280;5042;42.626;23.382;2024-01-06T06:06:00;150352.56;;;5.00;100.00
10006;BME280;5042;42.626;23.382;2024-01-06T06:08:28;150352.56;;;5.00;100.00
10006;BME280;5042;42.626;23.382;2024-01-06T06:10:55;150362.91;;;5.04;100.00
10006;BME280;5042;42.626;23.382;2024-01-06T06:13:27;150371.97;;;5.08;100.00
10006;BME280;5042;42.626;23.382;2024-01-06T06:15:54;150404.22;;;5.21;100.00
10006;BME280;5042;42.626;23.382;2024-01-06T06:18:21;150430.03;;;5.31;100.00
10006;BME280;5042;42.626;23.382;2024-01-06T06:20:48;150463.66;;;5.44;100.00
10006;BME280;5042;42.626;23.382;2024-01-06T06:23:17;150466.22;;;5.45;100.00
10006;BME280;5042;42.626;23.382;2024-01-06T06:25:44;150474.00;;;5.48;100.00
10006;BME280;5042;42.626;23.382;2024-01-06T06:28:10;150499.81;;;5.59;100.00
10006;BME280;5042;42.626;23.382;2024-01-06T06:30:38;150506.28;;;5.61;100.00
10006;BME280;5042;42.626;23.382;2024-01-06T06:33:05;150520.47;;;5.67;100.00
10006;BME280;5042;42.626;23.382;2024-01-06T06:35:32;150543.72;;;5.76;100.00
10006;BME280;5042;42.626;23.382;2024-01-06T06:37:59;150520.47;;;5.67;100.00
10006;BME280;5042;42.626;23.382;2024-01-06T06:40:27;150517.91;;;5.66;100.00
10006;BME280;5042;42.626;23.382;2024-01-06T06:42:54;150512.72;;;5.64;100.00
10006;BME280;5042;42.626;23.382;2024-01-06T06:45:21;150536.00;;;5.73;100.00
10006;BME280;5042;42.626;23.382;2024-01-06T06:47:49;150541.16;;;5.75;100.00
10006;BME280;5042;42.626;23.382;2024-01-06T06:50:16;150554.06;;;5.80;100.00
10006;BME280;5042;42.626;23.382;2024-01-06T06:52:44;150541.16;;;5.75;100.00
10006;BME280;5042;42.626;23.382;2024-01-06T06:55:11;150561.81;;;5.83;100.00
10006;BME280;5042;42.626;23.382;2024-01-06T06:57:39;150590.31;;;5.94;100.00
10006;BME280;5042;42.626;23.382;2024-01-06T07:00:07;150604.50;;;6.00;100.00
10006;BME280;5042;42.626;23.382;2024-01-06T07:02:34;150612.28;;;6.03;100.00
10006;BME280;5042;42.626;23.382;2024-01-06T07:05:01;150622.59;;;6.07;100.00
10006;BME280;5042;42.626;23.382;2024-01-06T07:07:28;150657.50;;;6.21;100.00
10006;BME280;5042;42.626;23.382;2024-01-06T07:09:55;150678.19;;;6.29;100.00
10006;BME280;5042;42.626;23.382;2024-01-06T07:12:22;150688.50;;;6.33;100.00
10006;BME280;5042;42.626;23.382;2024-01-06T07:14:50;150693.69;;;6.35;100.00
10006;BME280;5042;42.626;23.382;2024-01-06T07:17:17;150695.03;;;6.36;100.00
10006;BME280;5042;42.626;23.382;2024-01-06T07:19:44;150724.75;;;6.48;100.00
10006;BME280;5042;42.626;23.382;2024-01-06T07:22:11;150764.81;;;6.64;100.00
10006;BME280;5042;42.626;23.382;2024-01-06T07:24:38;150736.34;;;6.52;100.00
10006;BME280;5042;42.626;23.382;2024-01-06T07:27:05;150742.84;;;6.55;100.00
10006;BME280;5042;42.626;23.382;2024-01-06T07:29:31;150745.41;;;6.56;100.00
10006;BME280;5042;42.626;23.382;2024-01-06T07:32:00;150754.44;;;6.59;100.00
10006;BME280;5042;42.626;23.382;2024-01-06T07:34:26;150745.41;;;6.56;100.00
10006;BME280;5042;42.626;23.382;2024-01-06T07:36:53;150801.00;;;6.78;100.00
10006;BME280;5042;42.626;23.382;2024-01-06T07:39:20;150771.25;;;6.66;100.00
10006;BME280;5042;42.626;23.382;2024-01-06T07:41:49;150813.94;;;6.83;100.00
10006;BME280;5042;42.626;23.382;2024-01-06T07:44:16;150803.63;;;6.79;100.00
10006;BME280;5042;42.626;23.382;2024-01-06T07:46:48;150832.03;;;6.90;100.00
10006;BME280;5042;42.626;23.382;2024-01-06T07:49:16;150846.28;;;6.96;100.00
10006;BME280;5042;42.626;23.382;2024-01-06T07:51:43;150854.03;;;6.99;100.00
10006;BME280;5042;42.626;23.382;2024-01-06T07:54:10;150896.72;;;7.16;100.00
10006;BME280;5042;42.626;23.382;2024-01-06T07:56:37;150918.72;;;7.25;100.00
10006;BME280;5042;42.626;23.382;2024-01-06T07:59:04;150891.53;;;7.14;100.00
10006;BME280;5042;42.626;23.382;2024-01-06T08:01:31;150882.50;;;7.10;100.00
10006;BME280;5042;42.626;23.382;2024-01-06T08:03:58;150866.97;;;7.04;100.00
10006;BME280;5042;42.626;23.382;2024-01-06T08:06:26;150863.13;;;7.03;100.00
10006;BME280;5042;42.626;23.382;2024-01-06T08:08:53;150898.00;;;7.16;100.00
10006;BME280;5042;42.626;23.382;2024-01-06T08:11:21;150900.59;;;7.17;100.00
10006;BME280;5042;42.626;23.382;2024-01-06T08:13:47;150956.22;;;7.39;100.00
10006;BME280;5042;42.626;23.382;2024-01-06T08:16:14;150951.03;;;7.37;100.00
10006;BME280;5042;42.626;23.382;2024-01-06T08:18:42;150918.72;;;7.25;100.00
10006;BME280;5042;42.626;23.382;2024-01-06T08:21:08;150885.06;;;7.11;100.00
10006;BME280;5042;42.626;23.382;2024-01-06T08:23:37;150912.25;;;7.22;100.00
10006;BME280;5042;42.626;23.382;2024-01-06T08:26:04;150931.66;;;7.30;100.00
10006;BME280;5042;42.626;23.382;2024-01-06T08:28:32;150957.50;;;7.40;100.00
10006;BME280;5042;42.626;23.382;2024-01-06T08:30:58;150935.53;;;7.31;100.00
10006;BME280;5042;42.626;23.382;2024-01-06T08:33:25;151024.81;;;7.67;100.00
10006;BME280;5042;42.626;23.382;2024-01-06T08:35:52;151032.56;;;7.70;100.00
10006;BME280;5042;42.626;23.382;2024-01-06T08:38:19;150998.91;;;7.56;100.00
10006;BME280;5042;42.626;23.382;2024-01-06T08:40:49;151022.19;;;7.65;100.00
10006;BME280;5042;42.626;23.382;2024-01-06T08:43:17;151108.94;;;8.00;100.00
10006;BME280;5042;42.626;23.382;2024-01-06T08:45:44;151174.97;;;8.26;100.00
10006;BME280;5042;42.626;23.382;2024-01-06T08:48:11;151193.09;;;8.33;100.00
10006;BME280;5042;42.626;23.382;2024-01-06T08:50:39;151226.75;;;8.46;100.00
10006;BME280;5042;42.626;23.382;2024-01-06T08:53:05;151195.66;;;8.34;100.00
10006;BME280;5042;42.626;23.382;2024-01-06T08:55:32;151235.84;;;8.50;100.00
10006;BME280;5042;42.626;23.382;2024-01-06T08:58:01;151338.16;;;8.90;100.00
10006;BME280;5042;42.626;23.382;2024-01-06T09:00:28;151413.28;;;9.20;100.00
10006;BME280;5042;42.626;23.382;2024-01-06T09:02:55;151472.88;;;9.44;100.00
10006;BME280;5042;42.626;23.382;2024-01-06T09:05:21;151489.72;;;9.50;100.00
10006;BME280;5042;42.626;23.382;2024-01-06T09:07:48;151505.31;;;9.57;100.00
10006;BME280;5042;42.626;23.382;2024-01-06T09:10:16;151446.97;;;9.33;100.00
10006;BME280;5042;42.626;23.382;2024-01-06T09:12:43;151467.69;;;9.42;100.00
10006;BME280;5042;42.626;23.382;2024-01-06T09:15:11;151478.06;;;9.46;100.00
10006;BME280;5042;42.626;23.382;2024-01-06T09:17:38;151441.78;;;9.31;100.00
10006;BME280;5042;42.626;23.382;2024-01-06T09:20:06;151415.88;;;9.21;100.00
10006;BME280;5042;42.626;23.382;2024-01-06T09:22:33;151351.09;;;8.96;100.00
10006;BME280;5042;42.626;23.382;2024-01-06T09:25:00;151299.28;;;8.75;100.00
10006;BME280;5042;42.626;23.382;2024-01-06T09:27:27;151291.53;;;8.72;100.00
10006;BME280;5042;42.626;23.382;2024-01-06T09:29:54;151269.50;;;8.63;100.00
10006;BME280;5042;42.626;23.382;2024-01-06T09:32:22;151281.16;;;8.68;100.00
10006;BME280;5042;42.626;23.382;2024-01-06T09:34:49;151263.03;;;8.61;100.00
10006;BME280;5042;42.626;23.382;2024-01-06T09:37:16;151273.41;;;8.65;100.00
10006;BME280;5042;42.626;23.382;2024-01-06T09:39:43;151256.56;;;8.58;100.00
10006;BME280;5042;42.626;23.382;2024-01-06T09:42:10;151287.63;;;8.70;100.00
10006;BME280;5042;42.626;23.382;2024-01-06T09:44:37;151270.81;;;8.64;100.00
10006;BME280;5042;42.626;23.382;2024-01-06T09:47:05;151299.28;;;8.75;100.00
10006;BME280;5042;42.626;23.382;2024-01-06T09:49:34;151309.66;;;8.79;100.00
10006;BME280;5042;42.626;23.382;2024-01-06T09:52:11;151309.66;;;8.79;100.00
10006;BME280;5042;42.626;23.382;2024-01-06T09:54:46;151335.53;;;8.89;100.00
10006;BME280;5042;42.626;23.382;2024-01-06T09:57:16;151338.16;;;8.90;100.00
10006;BME280;5042;42.626;23.382;2024-01-06T09:59:44;151338.16;;;8.90;100.00
10006;BME280;5042;42.626;23.382;2024-01-06T10:02:12;151351.09;;;8.96;100.00
10006;BME280;5042;42.626;23.382;2024-01-06T10:04:42;151357.56;;;8.98;100.00
10006;BME280;5042;42.626;23.382;2024-01-06T10:07:09;151353.69;;;8.97;100.00
10006;BME280;5042;42.626;23.382;2024-01-06T10:09:40;151349.81;;;8.95;100.00
10006;BME280;5042;42.626;23.382;2024-01-06T10:12:07;151330.41;;;8.87;100.00
10006;BME280;5042;42.626;23.382;2024-01-06T10:14:35;151303.19;;;8.77;100.00
10006;BME280;5042;42.626;23.382;2024-01-06T10:17:02;151272.13;;;8.64;100.00
10006;BME280;5042;42.626;23.382;2024-01-06T10:19:29;151250.09;;;8.56;100.00
10006;BME280;5042;42.626;23.382;2024-01-06T10:21:57;151243.59;;;8.53;100.00
10006;BME280;5042;42.626;23.382;2024-01-06T10:24:27;151207.31;;;8.39;100.00
10006;BME280;5042;42.626;23.382;2024-01-06T10:26:55;151169.78;;;8.24;100.00
10006;BME280;5042;42.626;23.382;2024-01-06T10:29:22;151143.84;;;8.14;100.00
10006;BME280;5042;42.626;23.382;2024-01-06T10:31:49;151138.72;;;8.12;100.00
10006;BME280;5042;42.626;23.382;2024-01-06T10:34:16;151111.50;;;8.01;100.00
10006;BME280;5042;42.626;23.382;2024-01-06T10:36:43;151106.31;;;7.99;100.00
10006;BME280;5042;42.626;23.382;2024-01-06T10:39:11;151120.59;;;8.04;100.00
10006;BME280;5042;42.626;23.382;2024-01-06T10:41:41;151149.03;;;8.16;100.00
10006;BME280;5042;42.626;23.382;2024-01-06T10:44:09;151066.19;;;7.83;100.00
10006;BME280;5042;42.626;23.382;2024-01-06T10:46:38;151154.22;;;8.18;100.00
10006;BME280;5042;42.626;23.382;2024-01-06T10:49:05;151177.53;;;8.27;100.00
10006;BME280;5042;42.626;23.382;2024-01-06T10:51:34;151181.44;;;8.28;100.00
10006;BME280;5042;42.626;23.382;2024-01-06T10:54:03;151180.09;;;8.28;100.00
10006;BME280;5042;42.626;23.382;2024-01-06T10:56:36;151165.88;;;8.22;100.00
10006;BME280;5042;42.626;23.382;2024-01-06T10:59:03;151172.34;;;8.25;100.00
10006;BME280;5042;42.626;23.382;2024-01-06T11:01:32;151174.97;;;8.26;100.00
10006;BME280;5042;42.626;23.382;2024-01-06T11:04:00;151161.97;;;8.21;100.00
10006;BME280;5042;42.626;23.382;2024-01-06T11:06:29;151169.78;;;8.24;100.00
10006;BME280;5042;42.626;23.382;2024-01-06T11:09:00;151195.66;;;8.34;100.00
10006;BME280;5042;42.626;23.382;2024-01-06T11:11:28;151222.91;;;8.45;100.00
10006;BME280;5042;42.626;23.382;2024-01-06T11:16:49;151198.28;;;8.35;100.00
10006;BME280;5042;42.626;23.382;2024-01-06T11:19:49;151239.72;;;8.52;100.00
10006;BME280;5042;42.626;23.382;2024-01-06T11:22:25;151141.28;;;8.13;100.00
10006;BME280;5042;42.626;23.382;2024-01-06T11:24:55;151068.81;;;7.84;100.00
10006;BME280;5042;42.626;23.382;2024-01-06T11:27:24;151272.13;;;8.64;100.00
10006;BME280;5042;42.626;23.382;2024-01-06T11:29:54;151266.94;;;8.62;100.00
10006;BME280;5042;42.626;23.382;2024-01-06T11:32:27;151265.63;;;8.62;100.00
10006;BME280;5042;42.626;23.382;2024-01-06T11:34:56;151318.75;;;8.83;100.00
10006;BME280;5042;42.626;23.382;2024-01-06T11:37:25;151312.22;;;8.80;100.00
10006;BME280;5042;42.626;23.382;2024-01-06T11:39:52;151358.88;;;8.99;100.00
10006;BME280;5042;42.626;23.382;2024-01-06T11:42:19;151356.28;;;8.98;100.00
10006;BME280;5042;42.626;23.382;2024-01-06T11:44:50;151375.72;;;9.05;100.00
10006;BME280;5042;42.626;23.382;2024-01-06T11:47:18;151437.88;;;9.30;100.00
10006;BME280;5042;42.626;23.382;2024-01-06T11:49:54;151488.44;;;9.50;100.00
10006;BME280;5042;42.626;23.382;2024-01-06T11:52:22;151511.78;;;9.59;100.00
10006;BME280;5042;42.626;23.382;2024-01-06T11:54:52;151527.31;;;9.65;100.00
10006;BME280;5042;42.626;23.382;2024-01-06T11:57:19;151542.88;;;9.71;100.00
10006;BME280;5042;42.626;23.382;2024-01-06T11:59:46;151545.44;;;9.72;100.00
10006;BME280;5042;42.626;23.382;2024-01-06T12:02:14;151579.16;;;9.86;100.00
10006;BME280;5042;42.626;23.382;2024-01-06T12:04:42;151592.13;;;9.91;100.00
10006;BME280;5042;42.626;23.382;2024-01-06T12:07:10;151599.88;;;9.94;100.00
10006;BME280;5042;42.626;23.382;2024-01-06T12:09:40;151608.97;;;9.97;100.00
10006;BME280;5042;42.626;23.382;2024-01-06T12:12:07;151596.03;;;9.92;100.00
10006;BME280;5042;42.626;23.382;2024-01-06T12:14:36;151528.63;;;9.66;100.00
10006;BME280;5042;42.626;23.382;2024-01-06T12:17:04;151548.06;;;9.73;100.00
10006;BME280;5042;42.626;23.382;2024-01-06T12:19:31;151519.53;;;9.62;100.00
10006;BME280;5042;42.626;23.382;2024-01-06T12:21:59;151553.25;;;9.75;100.00
10006;BME280;5042;42.626;23.382;2024-01-06T12:24:28;151597.31;;;9.93;100.00
10006;BME280;5042;42.626;23.382;2024-01-06T12:26:56;151586.91;;;9.89;100.00
10006;BME280;5042;42.626;23.382;2024-01-06T12:29:26;151671.19;;;10.22;100.00
10006;BME280;5042;42.626;23.382;2024-01-06T12:31:53;151682.88;;;10.27;100.00
10006;BME280;5042;42.626;23.382;2024-01-06T12:34:20;151701.06;;;10.34;100.00
10006;BME280;5042;42.626;23.382;2024-01-06T12:36:46;151708.88;;;10.37;100.00
10006;BME280;5042;42.626;23.382;2024-01-06T12:39:13;151692.00;;;10.30;100.00
10006;BME280;5042;42.626;23.382;2024-01-06T12:41:43;151715.34;;;10.39;100.00
10006;BME280;5042;42.626;23.382;2024-01-06T12:44:10;151706.25;;;10.36;100.00
10006;BME280;5042;42.626;23.382;2024-01-06T12:46:38;151647.84;;;10.13;100.00
10006;BME280;5042;42.626;23.382;2024-01-06T12:49:05;151682.88;;;10.27;100.00
10006;BME280;5042;42.626;23.382;2024-01-06T12:51:32;151673.81;;;10.23;100.00
10006;BME280;5042;42.626;23.382;2024-01-06T12:53:59;151725.69;;;10.44;100.00
10006;BME280;5042;42.626;23.382;2024-01-06T12:56:26;151755.53;;;10.55;100.00